createdAt,value
2019-03-10T00:00:11.337Z,2.90
2019-03-10T00:01:12.605Z,3.10
2019-03-10T00:02:11.372Z,2.50
2019-03-10T00:03:11.382Z,2.60
2019-03-10T00:04:11.361Z,3.20
2019-03-10T00:05:11.371Z,2.70
2019-03-10T00:06:14.356Z,2.90
2019-03-10T00:07:11.383Z,3.10
2019-03-10T00:08:11.362Z,2.90
2019-03-10T00:09:11.398Z,3.20
2019-03-10T00:10:11.377Z,3.10
2019-03-10T00:11:11.387Z,2.90
2019-03-10T00:12:11.444Z,4.20
2019-03-10T00:13:11.376Z,3.40
2019-03-10T00:14:11.506Z,2.80
2019-03-10T00:15:11.388Z,2.70
2019-03-10T00:16:11.396Z,2.70
2019-03-10T00:17:12.173Z,2.80
2019-03-10T00:18:11.414Z,2.70
2019-03-10T00:19:11.418Z,2.50
2019-03-10T00:20:11.433Z,3.00
2019-03-10T00:21:11.432Z,2.20
2019-03-10T00:22:11.979Z,2.60
2019-03-10T00:23:11.448Z,2.20
2019-03-10T00:24:11.433Z,2.60
2019-03-10T00:25:11.429Z,2.80
2019-03-10T00:26:11.447Z,2.80
2019-03-10T00:27:12.525Z,3.00
2019-03-10T00:28:11.459Z,3.40
2019-03-10T00:29:11.439Z,2.50
2019-03-10T00:30:11.464Z,2.90
2019-03-10T00:31:11.465Z,3.40
2019-03-10T00:32:11.461Z,2.10
2019-03-10T00:33:11.890Z,3.70
2019-03-10T00:34:11.479Z,2.70
2019-03-10T00:35:12.537Z,3.50
2019-03-10T00:36:11.497Z,2.50
2019-03-10T00:37:11.476Z,3.70
2019-03-10T00:38:11.569Z,3.50
2019-03-10T00:39:11.511Z,3.70
2019-03-10T00:40:11.488Z,2.40
2019-03-10T00:41:11.486Z,2.30
2019-03-10T00:42:11.485Z,2.70
2019-03-10T00:43:11.503Z,2.60
2019-03-10T00:44:11.589Z,2.50
2019-03-10T00:45:11.514Z,2.90
2019-03-10T00:46:11.509Z,2.70
2019-03-10T00:47:11.515Z,2.50
2019-03-10T00:48:11.592Z,2.50
2019-03-10T00:49:11.582Z,2.30
2019-03-10T00:50:11.544Z,2.30
2019-03-10T00:51:11.559Z,2.60
2019-03-10T00:52:11.545Z,2.80
2019-03-10T00:53:11.572Z,3.10
2019-03-10T00:54:11.532Z,2.10
2019-03-10T00:55:11.592Z,2.00
2019-03-10T00:56:11.542Z,2.80
2019-03-10T00:57:11.600Z,2.40
2019-03-10T00:58:11.546Z,2.40
2019-03-10T00:59:11.565Z,2.30
2019-03-10T01:00:11.605Z,2.40
2019-03-10T01:01:11.563Z,2.70
2019-03-10T01:02:11.574Z,2.30
2019-03-10T01:03:11.619Z,2.90
2019-03-10T01:04:11.573Z,3.50
2019-03-10T01:05:11.597Z,3.30
2019-03-10T01:06:11.574Z,2.80
2019-03-10T01:07:11.613Z,2.90
2019-03-10T01:08:11.634Z,2.70
2019-03-10T01:09:11.585Z,3.10
2019-03-10T01:10:11.636Z,2.50
2019-03-10T01:11:11.597Z,2.50
2019-03-10T01:12:11.600Z,4.30
2019-03-10T01:13:11.660Z,3.10
2019-03-10T01:14:11.679Z,2.90
2019-03-10T01:15:11.611Z,3.20
2019-03-10T01:16:11.610Z,3.00
2019-03-10T01:17:11.693Z,3.10
2019-03-10T01:18:11.638Z,4.00
2019-03-10T01:19:11.634Z,3.40
2019-03-10T01:20:11.647Z,2.90
2019-03-10T01:21:11.634Z,3.40
2019-03-10T01:22:11.667Z,3.00
2019-03-10T01:23:11.644Z,2.60
2019-03-10T01:24:11.681Z,1.90
2019-03-10T01:25:11.648Z,3.00
2019-03-10T01:26:11.645Z,3.40
2019-03-10T01:27:11.710Z,2.80
2019-03-10T01:28:11.657Z,3.70
2019-03-10T01:29:11.672Z,2.20
2019-03-10T01:30:11.659Z,2.50
2019-03-10T01:31:11.687Z,2.50
2019-03-10T01:32:11.683Z,2.50
2019-03-10T01:33:11.701Z,2.30
2019-03-10T01:34:11.718Z,2.40
2019-03-10T01:35:11.709Z,2.40
2019-03-10T01:36:11.730Z,2.60
2019-03-10T01:37:11.689Z,2.10
2019-03-10T01:38:11.712Z,2.50
2019-03-10T01:39:11.693Z,2.50
2019-03-10T01:40:11.691Z,3.10
2019-03-10T01:41:11.705Z,3.10
2019-03-10T01:42:11.789Z,2.20
2019-03-10T01:43:11.780Z,2.70
2019-03-10T01:44:11.712Z,2.60
2019-03-10T01:45:11.727Z,2.50
2019-03-10T01:46:11.735Z,2.70
2019-03-10T01:47:11.733Z,2.10
2019-03-10T01:48:11.753Z,2.50
2019-03-10T01:49:11.722Z,2.60
2019-03-10T01:50:11.775Z,2.30
2019-03-10T01:51:11.750Z,2.60
2019-03-10T01:52:11.737Z,2.60
2019-03-10T01:53:11.736Z,3.10
2019-03-10T01:54:11.845Z,3.10
2019-03-10T01:55:11.757Z,2.30
2019-03-10T01:56:11.783Z,2.60
2019-03-10T01:57:11.767Z,2.70
2019-03-10T01:58:11.763Z,4.10
2019-03-10T01:59:11.772Z,2.80
2019-03-10T02:00:11.831Z,2.50
2019-03-10T02:01:11.797Z,2.70
2019-03-10T02:02:11.780Z,2.50
2019-03-10T02:03:11.786Z,2.20
2019-03-10T02:04:11.792Z,2.20
2019-03-10T02:05:11.812Z,2.20
2019-03-10T02:06:11.829Z,3.40
2019-03-10T02:07:11.780Z,2.90
2019-03-10T02:08:11.788Z,3.10
2019-03-10T02:09:11.802Z,2.70
2019-03-10T02:10:11.798Z,2.50
2019-03-10T02:11:11.841Z,3.20
2019-03-10T02:12:11.806Z,2.90
2019-03-10T02:13:11.836Z,2.60
2019-03-10T02:14:11.832Z,3.00
2019-03-10T02:15:11.832Z,3.10
2019-03-10T02:16:11.842Z,2.80
2019-03-10T02:17:11.853Z,2.60
2019-03-10T02:18:11.833Z,2.20
2019-03-10T02:19:11.821Z,3.40
2019-03-10T02:20:11.856Z,2.90
2019-03-10T02:21:11.884Z,2.50
2019-03-10T02:22:11.844Z,2.80
2019-03-10T02:23:11.867Z,2.50
2019-03-10T02:24:11.860Z,2.30
2019-03-10T02:25:11.853Z,2.90
2019-03-10T02:26:11.918Z,2.80
2019-03-10T02:27:11.874Z,2.10
2019-03-10T02:28:11.876Z,3.00
2019-03-10T02:29:11.886Z,3.20
2019-03-10T02:30:11.893Z,2.30
2019-03-10T02:31:11.868Z,2.90
2019-03-10T02:32:11.961Z,2.50
2019-03-10T02:33:11.917Z,2.30
2019-03-10T02:34:11.937Z,2.50
2019-03-10T02:35:11.957Z,2.50
2019-03-10T02:36:11.885Z,2.60
2019-03-10T02:37:11.980Z,2.30
2019-03-10T02:38:11.931Z,2.50
2019-03-10T02:39:11.904Z,2.60
2019-03-10T02:40:11.921Z,3.20
2019-03-10T02:41:11.977Z,2.50
2019-03-10T02:42:11.911Z,2.70
2019-03-10T02:43:11.973Z,3.20
2019-03-10T02:44:11.989Z,2.10
2019-03-10T02:45:11.955Z,3.30
2019-03-10T02:46:11.931Z,2.50
2019-03-10T02:47:11.953Z,2.60
2019-03-10T02:48:11.932Z,2.70
2019-03-10T02:49:12.037Z,2.50
2019-03-10T02:50:11.971Z,3.20
2019-03-10T02:51:11.949Z,2.90
2019-03-10T02:52:11.962Z,3.00
2019-03-10T02:53:11.986Z,2.80
2019-03-10T02:54:11.984Z,3.30
2019-03-10T02:55:11.995Z,2.70
2019-03-10T02:56:11.976Z,2.20
2019-03-10T02:57:11.960Z,2.50
2019-03-10T02:58:12.009Z,2.80
2019-03-10T02:59:11.986Z,2.70
2019-03-10T03:00:11.983Z,2.50
2019-03-10T03:01:11.993Z,2.50
2019-03-10T03:02:12.005Z,2.80
2019-03-10T03:03:12.022Z,2.50
2019-03-10T03:04:11.986Z,2.70
2019-03-10T03:05:11.989Z,2.50
2019-03-10T03:06:12.006Z,3.10
2019-03-10T03:07:12.016Z,2.80
2019-03-10T03:08:12.014Z,2.60
2019-03-10T03:09:12.069Z,2.50
2019-03-10T03:10:11.999Z,2.40
2019-03-10T03:11:12.065Z,2.40
2019-03-10T03:12:12.026Z,2.30
2019-03-10T03:13:12.024Z,2.70
2019-03-10T03:14:12.083Z,2.80
2019-03-10T03:15:12.029Z,2.60
2019-03-10T03:16:12.024Z,3.00
2019-03-10T03:17:12.027Z,2.60
2019-03-10T03:18:12.093Z,2.60
2019-03-10T03:19:12.053Z,2.80
2019-03-10T03:20:12.096Z,2.50
2019-03-10T03:21:12.092Z,2.60
2019-03-10T03:22:12.053Z,2.30
2019-03-10T03:23:12.040Z,2.80
2019-03-10T03:24:12.105Z,3.30
2019-03-10T03:25:12.073Z,2.90
2019-03-10T03:26:12.065Z,2.30
2019-03-10T03:27:12.141Z,3.00
2019-03-10T03:28:12.081Z,2.80
2019-03-10T03:29:12.084Z,2.80
2019-03-10T03:30:12.082Z,2.10
2019-03-10T03:31:12.118Z,2.50
2019-03-10T03:32:12.085Z,2.50
2019-03-10T03:33:12.102Z,2.80
2019-03-10T03:34:12.124Z,3.00
2019-03-10T03:35:12.112Z,2.70
2019-03-10T03:36:12.160Z,2.50
2019-03-10T03:37:12.109Z,2.30
2019-03-10T03:38:12.178Z,3.30
2019-03-10T03:39:12.160Z,3.80
2019-03-10T03:40:12.103Z,2.50
2019-03-10T03:41:12.153Z,2.60
2019-03-10T03:42:12.117Z,2.70
2019-03-10T03:43:12.203Z,2.30
2019-03-10T03:44:12.128Z,2.70
2019-03-10T03:45:12.153Z,3.00
2019-03-10T03:46:12.124Z,2.70
2019-03-10T03:47:12.158Z,2.80
2019-03-10T03:48:12.164Z,2.50
2019-03-10T03:49:12.187Z,3.00
2019-03-10T03:50:12.204Z,3.00
2019-03-10T03:51:12.143Z,2.60
2019-03-10T03:52:12.206Z,2.70
2019-03-10T03:53:12.262Z,2.90
2019-03-10T03:54:12.162Z,3.10
2019-03-10T03:55:12.192Z,3.20
2019-03-10T03:56:12.156Z,3.10
2019-03-10T03:57:12.163Z,3.40
2019-03-10T03:58:12.164Z,2.80
2019-03-10T03:59:12.235Z,2.90
2019-03-10T04:00:12.174Z,2.90
2019-03-10T04:01:12.184Z,3.00
2019-03-10T04:02:12.199Z,3.20
2019-03-10T04:03:12.228Z,3.10
2019-03-10T04:04:12.188Z,3.20
2019-03-10T04:05:12.248Z,3.50
2019-03-10T04:06:12.190Z,3.30
2019-03-10T04:07:12.216Z,3.40
2019-03-10T04:08:12.207Z,3.30
2019-03-10T04:09:12.250Z,4.20
2019-03-10T04:10:12.211Z,3.30
2019-03-10T04:11:12.256Z,3.40
2019-03-10T04:12:12.213Z,3.50
2019-03-10T04:13:12.216Z,3.50
2019-03-10T04:14:12.231Z,3.00
2019-03-10T04:15:12.280Z,3.70
2019-03-10T04:16:12.236Z,3.20
2019-03-10T04:17:12.247Z,3.60
2019-03-10T04:18:12.247Z,3.00
2019-03-10T04:19:12.266Z,3.80
2019-03-10T04:20:12.241Z,4.00
2019-03-10T04:21:12.303Z,4.00
2019-03-10T04:22:12.309Z,3.60
2019-03-10T04:23:12.270Z,3.60
2019-03-10T04:24:12.303Z,3.90
2019-03-10T04:25:12.249Z,4.00
2019-03-10T04:26:12.262Z,4.50
2019-03-10T04:27:12.265Z,3.70
2019-03-10T04:28:12.315Z,4.10
2019-03-10T04:29:12.281Z,3.70
2019-03-10T04:30:12.345Z,3.90
2019-03-10T04:31:12.287Z,3.90
2019-03-10T04:32:12.277Z,3.60
2019-03-10T04:33:12.300Z,4.30
2019-03-10T04:34:12.358Z,4.50
2019-03-10T04:35:12.299Z,5.00
2019-03-10T04:36:12.295Z,4.00
2019-03-10T04:37:12.360Z,4.20
2019-03-10T04:38:12.332Z,4.10
2019-03-10T04:39:12.312Z,4.40
2019-03-10T04:40:12.311Z,4.00
2019-03-10T04:41:12.363Z,4.00
2019-03-10T04:42:12.316Z,4.10
2019-03-10T04:43:12.336Z,3.60
2019-03-10T04:44:12.325Z,3.80
2019-03-10T04:45:12.340Z,4.00
2019-03-10T04:46:12.331Z,4.40
2019-03-10T04:47:12.371Z,4.50
2019-03-10T04:48:12.365Z,4.40
2019-03-10T04:49:12.340Z,4.20
2019-03-10T04:50:12.377Z,4.30
2019-03-10T04:51:12.385Z,4.60
2019-03-10T04:52:12.370Z,4.40
2019-03-10T04:53:12.350Z,4.30
2019-03-10T04:54:12.405Z,4.30
2019-03-10T04:55:12.405Z,4.00
2019-03-10T04:56:12.376Z,4.00
2019-03-10T04:57:12.379Z,4.20
2019-03-10T04:58:12.422Z,4.50
2019-03-10T04:59:12.363Z,4.10
2019-03-10T05:00:12.427Z,4.20
2019-03-10T05:01:12.389Z,4.60
2019-03-10T05:02:12.415Z,4.00
2019-03-10T05:03:12.391Z,4.40
2019-03-10T05:04:12.416Z,4.70
2019-03-10T05:05:12.402Z,4.20
2019-03-10T05:06:12.404Z,4.60
2019-03-10T05:07:12.404Z,4.20
2019-03-10T05:08:12.399Z,4.40
2019-03-10T05:09:12.426Z,4.00
2019-03-10T05:10:12.441Z,3.80
2019-03-10T05:11:12.415Z,4.70
2019-03-10T05:12:12.431Z,4.40
2019-03-10T05:13:12.420Z,3.90
2019-03-10T05:14:12.485Z,4.60
2019-03-10T05:15:12.452Z,4.00
2019-03-10T05:16:12.513Z,4.10
2019-03-10T05:17:12.438Z,4.80
2019-03-10T05:18:12.441Z,4.70
2019-03-10T05:19:12.511Z,4.90
2019-03-10T05:20:12.463Z,4.60
2019-03-10T05:21:12.445Z,4.00
2019-03-10T05:22:12.471Z,4.30
2019-03-10T05:23:12.484Z,4.70
2019-03-10T05:24:12.484Z,4.60
2019-03-10T05:25:12.517Z,4.70
2019-03-10T05:26:12.543Z,4.20
2019-03-10T05:27:12.471Z,4.40
2019-03-10T05:28:12.536Z,4.00
2019-03-10T05:29:12.546Z,4.30
2019-03-10T05:30:12.551Z,4.60
2019-03-10T05:31:12.494Z,5.20
2019-03-10T05:32:12.501Z,4.80
2019-03-10T05:33:12.506Z,4.00
2019-03-10T05:34:12.503Z,4.50
2019-03-10T05:35:12.546Z,4.60
2019-03-10T05:36:12.511Z,4.70
2019-03-10T05:37:12.521Z,4.90
2019-03-10T05:38:12.516Z,4.50
2019-03-10T05:39:12.517Z,4.60
2019-03-10T05:40:12.549Z,5.10
2019-03-10T05:41:12.603Z,4.70
2019-03-10T05:42:12.597Z,4.80
2019-03-10T05:43:12.538Z,4.80
2019-03-10T05:44:12.571Z,4.60
2019-03-10T05:45:12.554Z,4.80
2019-03-10T05:46:12.564Z,4.60
2019-03-10T05:47:12.572Z,4.80
2019-03-10T05:48:12.621Z,4.60
2019-03-10T05:49:12.566Z,4.50
2019-03-10T05:50:12.563Z,4.60
2019-03-10T05:51:12.644Z,4.70
2019-03-10T05:52:12.568Z,4.80
2019-03-10T05:53:12.569Z,4.50
2019-03-10T05:54:12.865Z,5.00
2019-03-10T05:55:12.583Z,4.60
2019-03-10T05:56:12.585Z,4.20
2019-03-10T05:57:12.631Z,4.70
2019-03-10T05:58:12.623Z,4.70
2019-03-10T05:59:12.604Z,4.90
2019-03-10T06:00:12.636Z,4.60
2019-03-10T06:01:12.595Z,4.50
2019-03-10T06:02:12.599Z,4.50
2019-03-10T06:03:12.660Z,4.50
2019-03-10T06:04:12.694Z,4.20
2019-03-10T06:05:12.651Z,4.20
2019-03-10T06:06:12.636Z,4.60
2019-03-10T06:07:12.630Z,4.70
2019-03-10T06:08:12.653Z,4.70
2019-03-10T06:09:12.645Z,5.00
2019-03-10T06:10:12.676Z,4.40
2019-03-10T06:11:12.664Z,4.20
2019-03-10T06:12:12.648Z,4.80
2019-03-10T06:13:12.758Z,4.30
2019-03-10T06:14:12.683Z,4.20
2019-03-10T06:15:12.668Z,4.20
2019-03-10T06:16:12.897Z,4.50
2019-03-10T06:17:12.663Z,4.30
2019-03-10T06:18:13.817Z,4.50
2019-03-10T06:19:12.692Z,5.00
2019-03-10T06:20:12.687Z,4.50
2019-03-10T06:21:12.717Z,4.90
2019-03-10T06:22:12.910Z,4.80
2019-03-10T06:23:12.701Z,4.50
2019-03-10T06:24:12.730Z,5.00
2019-03-10T06:25:12.709Z,5.00
2019-03-10T06:26:12.747Z,4.70
2019-03-10T06:27:12.742Z,4.70
2019-03-10T06:28:12.719Z,5.40
2019-03-10T06:29:12.714Z,5.00
2019-03-10T06:30:12.749Z,5.50
2019-03-10T06:31:12.727Z,5.20
2019-03-10T06:32:12.737Z,5.20
2019-03-10T06:33:12.791Z,5.20
2019-03-10T06:34:12.772Z,5.50
2019-03-10T06:35:12.731Z,4.80
2019-03-10T06:36:12.757Z,5.00
2019-03-10T06:37:12.759Z,5.70
2019-03-10T06:38:12.778Z,5.30
2019-03-10T06:39:12.783Z,5.10
2019-03-10T06:40:12.772Z,5.60
2019-03-10T06:41:12.774Z,4.70
2019-03-10T06:42:12.752Z,4.50
2019-03-10T06:43:12.834Z,5.00
2019-03-10T06:44:12.850Z,5.10
2019-03-10T06:45:12.829Z,4.80
2019-03-10T06:46:12.825Z,4.80
2019-03-10T06:47:12.790Z,4.50
2019-03-10T06:48:12.786Z,5.10
2019-03-10T06:49:12.807Z,4.70
2019-03-10T06:50:12.836Z,4.60
2019-03-10T06:51:12.843Z,4.80
2019-03-10T06:52:12.848Z,4.50
2019-03-10T06:53:12.818Z,4.70
2019-03-10T06:54:12.859Z,4.70
2019-03-10T06:55:12.876Z,4.80
2019-03-10T06:56:12.827Z,4.10
2019-03-10T06:57:12.829Z,4.30
2019-03-10T06:58:12.843Z,4.50
2019-03-10T06:59:12.853Z,5.20
2019-03-10T07:00:12.900Z,4.90
2019-03-10T07:01:12.843Z,4.50
2019-03-10T07:02:12.872Z,5.00
2019-03-10T07:03:12.879Z,4.50
2019-03-10T07:04:12.855Z,4.60
2019-03-10T07:05:12.902Z,4.50
2019-03-10T07:06:12.899Z,4.10
2019-03-10T07:07:12.863Z,4.00
2019-03-10T07:08:12.864Z,4.20
2019-03-10T07:09:12.870Z,4.20
2019-03-10T07:10:12.921Z,4.80
2019-03-10T07:11:12.891Z,4.60
2019-03-10T07:12:12.886Z,3.90
2019-03-10T07:13:12.897Z,4.70
2019-03-10T07:14:12.907Z,4.30
2019-03-10T07:15:12.941Z,4.40
2019-03-10T07:16:12.907Z,4.30
2019-03-10T07:17:12.899Z,4.30
2019-03-10T07:18:12.962Z,4.70
2019-03-10T07:19:12.939Z,4.00
2019-03-10T07:20:12.931Z,4.10
2019-03-10T07:21:12.945Z,4.50
2019-03-10T07:22:16.641Z,4.70
2019-03-10T07:23:12.945Z,5.10
2019-03-10T07:24:12.974Z,4.50
2019-03-10T07:25:12.959Z,4.50
2019-03-10T07:26:13.170Z,4.70
2019-03-10T07:27:12.961Z,5.30
2019-03-10T07:28:13.017Z,5.10
2019-03-10T07:29:13.318Z,4.70
2019-03-10T07:30:12.968Z,4.80
2019-03-10T07:31:12.972Z,4.90
2019-03-10T07:32:12.985Z,5.10
2019-03-10T07:33:13.006Z,4.90
2019-03-10T07:34:12.989Z,4.30
2019-03-10T07:35:13.048Z,4.60
2019-03-10T07:36:13.006Z,4.60
2019-03-10T07:37:13.094Z,4.60
2019-03-10T07:38:13.078Z,4.20
2019-03-10T07:39:13.897Z,4.90
2019-03-10T07:40:13.051Z,4.90
2019-03-10T07:41:13.116Z,4.90
2019-03-10T07:42:13.060Z,5.20
2019-03-10T07:43:13.072Z,4.90
2019-03-10T07:44:13.046Z,4.60
2019-03-10T07:45:13.073Z,4.90
2019-03-10T07:46:13.115Z,5.00
2019-03-10T07:47:13.117Z,5.70
2019-03-10T07:48:13.137Z,7.20
2019-03-10T07:49:13.063Z,7.80
2019-03-10T07:50:13.081Z,5.10
2019-03-10T07:51:13.106Z,4.70
2019-03-10T07:52:20.119Z,4.60
2019-03-10T07:53:13.124Z,4.90
2019-03-10T07:54:13.087Z,5.00
2019-03-10T07:55:13.105Z,4.60
2019-03-10T07:56:13.156Z,5.70
2019-03-10T07:57:13.110Z,4.40
2019-03-10T07:58:13.216Z,5.30
2019-03-10T07:59:13.207Z,5.20
2019-03-10T08:00:13.138Z,5.50
2019-03-10T08:01:13.152Z,5.60
2019-03-10T08:02:13.206Z,5.00
2019-03-10T08:03:13.200Z,5.10
2019-03-10T08:04:13.161Z,4.90
2019-03-10T08:05:13.161Z,5.70
2019-03-10T08:06:13.170Z,5.10
2019-03-10T08:07:13.174Z,5.30
2019-03-10T08:08:13.187Z,4.80
2019-03-10T08:09:13.280Z,5.10
2019-03-10T08:10:13.196Z,5.30
2019-03-10T08:11:13.179Z,5.20
2019-03-10T08:12:13.195Z,5.80
2019-03-10T08:13:13.217Z,5.20
2019-03-10T08:14:13.304Z,5.00
2019-03-10T08:15:13.222Z,6.10
2019-03-10T08:16:13.219Z,5.50
2019-03-10T08:17:13.230Z,5.90
2019-03-10T08:18:13.236Z,7.00
2019-03-10T08:19:13.235Z,5.10
2019-03-10T08:20:13.314Z,4.80
2019-03-10T08:21:13.264Z,5.40
2019-03-10T08:22:13.258Z,6.10
2019-03-10T08:23:13.262Z,4.50
2019-03-10T08:24:13.251Z,4.80
2019-03-10T08:25:13.289Z,5.90
2019-03-10T08:26:13.315Z,7.80
2019-03-10T08:27:13.272Z,5.40
2019-03-10T08:28:13.281Z,6.50
2019-03-10T08:29:13.300Z,5.60
2019-03-10T08:30:13.346Z,5.80
2019-03-10T08:31:13.301Z,5.10
2019-03-10T08:32:13.352Z,5.40
2019-03-10T08:33:13.322Z,4.80
2019-03-10T08:34:13.323Z,5.90
2019-03-10T08:35:13.328Z,5.40
2019-03-10T08:36:13.910Z,5.60
2019-03-10T08:37:13.383Z,5.70
2019-03-10T08:38:13.405Z,5.20
2019-03-10T08:39:13.364Z,5.40
2019-03-10T08:40:13.416Z,5.20
2019-03-10T08:41:13.412Z,5.40
2019-03-10T08:42:20.165Z,4.40
2019-03-10T08:43:13.373Z,5.20
2019-03-10T08:44:13.392Z,4.10
2019-03-10T08:45:13.459Z,4.10
2019-03-10T08:46:13.394Z,4.40
2019-03-10T08:47:13.415Z,5.30
2019-03-10T08:48:13.426Z,5.30
2019-03-10T08:49:13.417Z,6.40
2019-03-10T08:50:13.427Z,4.20
2019-03-10T08:51:13.464Z,4.30
2019-03-10T08:52:13.433Z,4.30
2019-03-10T08:53:13.427Z,4.30
2019-03-10T08:54:13.473Z,5.50
2019-03-10T08:55:13.475Z,4.40
2019-03-10T08:56:13.462Z,5.30
2019-03-10T08:57:13.526Z,4.60
2019-03-10T08:58:13.463Z,4.70
2019-03-10T08:59:13.461Z,4.50
2019-03-10T09:00:13.475Z,5.40
2019-03-10T09:01:13.473Z,4.10
2019-03-10T09:02:13.558Z,4.10
2019-03-10T09:03:13.494Z,3.70
2019-03-10T09:04:13.527Z,4.20
2019-03-10T09:05:13.508Z,4.20
2019-03-10T09:06:13.615Z,4.30
2019-03-10T09:07:13.565Z,4.20
2019-03-10T09:08:13.505Z,4.20
2019-03-10T09:09:13.560Z,3.90
2019-03-10T09:10:13.823Z,4.60
2019-03-10T09:11:13.548Z,4.00
2019-03-10T09:12:13.561Z,3.50
2019-03-10T09:13:13.633Z,3.80
2019-03-10T09:14:13.651Z,3.70
2019-03-10T09:15:13.589Z,3.90
2019-03-10T09:16:13.571Z,3.70
2019-03-10T09:17:13.600Z,3.70
2019-03-10T09:18:13.580Z,2.90
2019-03-10T09:19:13.586Z,2.90
2019-03-10T09:20:13.656Z,3.70
2019-03-10T09:21:13.636Z,3.60
2019-03-10T09:22:13.604Z,3.60
2019-03-10T09:23:13.767Z,3.70
2019-03-10T09:24:13.617Z,3.10
2019-03-10T09:25:13.696Z,3.30
2019-03-10T09:26:13.681Z,3.10
2019-03-10T09:27:13.697Z,3.90
2019-03-10T09:28:13.649Z,3.80
2019-03-10T09:29:13.663Z,3.60
2019-03-10T09:30:14.033Z,4.00
2019-03-10T09:31:13.980Z,3.60
2019-03-10T09:32:13.678Z,3.70
2019-03-10T09:33:13.783Z,3.90
2019-03-10T09:34:13.700Z,3.30
2019-03-10T09:35:13.712Z,3.40
2019-03-10T09:36:13.820Z,3.20
2019-03-10T09:37:14.145Z,3.30
2019-03-10T09:38:13.725Z,3.40
2019-03-10T09:39:13.744Z,3.50
2019-03-10T09:40:13.748Z,3.50
2019-03-10T09:41:13.768Z,3.60
2019-03-10T09:42:13.758Z,4.40
2019-03-10T09:43:13.750Z,4.60
2019-03-10T09:44:13.776Z,4.10
2019-03-10T09:45:13.793Z,5.30
2019-03-10T09:46:13.785Z,3.40
2019-03-10T09:47:13.834Z,4.70
2019-03-10T09:48:13.785Z,3.70
2019-03-10T09:49:13.810Z,3.50
2019-03-10T09:50:13.813Z,3.20
2019-03-10T09:51:13.803Z,4.60
2019-03-10T09:52:13.880Z,4.70
2019-03-10T09:53:13.873Z,4.20
2019-03-10T09:54:13.846Z,4.80
2019-03-10T09:55:13.855Z,6.20
2019-03-10T09:56:13.864Z,4.60
2019-03-10T09:57:13.928Z,4.90
2019-03-10T09:58:13.882Z,3.90
2019-03-10T09:59:13.977Z,4.00
2019-03-10T10:00:13.924Z,5.00
2019-03-10T10:01:13.864Z,4.60
2019-03-10T10:02:13.880Z,4.80
2019-03-10T10:03:13.971Z,3.50
2019-03-10T10:04:13.897Z,4.30
2019-03-10T10:05:13.884Z,3.60
2019-03-10T10:06:13.895Z,4.50
2019-03-10T10:07:13.921Z,4.10
2019-03-10T10:08:13.927Z,4.30
2019-03-10T10:09:13.942Z,5.10
2019-03-10T10:10:13.946Z,4.40
2019-03-10T10:11:13.955Z,5.70
2019-03-10T10:12:14.011Z,5.90
2019-03-10T10:13:13.971Z,4.50
2019-03-10T10:14:13.987Z,5.10
2019-03-10T10:15:13.993Z,4.90
2019-03-10T10:16:13.984Z,4.60
2019-03-10T10:17:14.036Z,4.30
2019-03-10T10:18:14.003Z,4.50
2019-03-10T10:19:13.998Z,4.90
2019-03-10T10:20:14.011Z,4.60
2019-03-10T10:21:14.072Z,4.90
2019-03-10T10:22:14.115Z,4.50
2019-03-10T10:23:14.037Z,4.40
2019-03-10T10:24:14.049Z,5.30
2019-03-10T10:25:14.072Z,4.50
2019-03-10T10:26:14.069Z,5.40
2019-03-10T10:27:14.063Z,6.00
2019-03-10T10:28:14.233Z,5.90
2019-03-10T10:29:14.102Z,4.80
2019-03-10T10:30:14.088Z,5.20
2019-03-10T10:31:14.143Z,5.00
2019-03-10T10:32:14.110Z,5.30
2019-03-10T10:33:14.113Z,5.40
2019-03-10T10:34:14.110Z,5.70
2019-03-10T10:35:14.118Z,6.10
2019-03-10T10:36:14.123Z,6.50
2019-03-10T10:37:14.144Z,6.40
2019-03-10T10:38:18.448Z,7.30
2019-03-10T10:39:14.213Z,5.40
2019-03-10T10:40:14.164Z,5.10
2019-03-10T10:41:14.164Z,5.20
2019-03-10T10:42:14.210Z,5.70
2019-03-10T10:43:14.188Z,5.90
2019-03-10T10:44:14.239Z,6.90
2019-03-10T10:45:14.211Z,6.60
2019-03-10T10:46:14.220Z,6.60
2019-03-10T10:47:14.210Z,6.30
2019-03-10T10:48:14.297Z,6.50
2019-03-10T10:49:14.241Z,5.60
2019-03-10T10:50:14.246Z,6.00
2019-03-10T10:51:14.264Z,6.40
2019-03-10T10:52:14.290Z,6.20
2019-03-10T10:53:14.475Z,6.30
2019-03-10T10:54:14.283Z,5.80
2019-03-10T10:55:14.329Z,6.20
2019-03-10T10:56:14.294Z,5.80
2019-03-10T10:57:14.291Z,5.60
2019-03-10T10:58:14.333Z,5.10
2019-03-10T10:59:14.293Z,6.30
2019-03-10T11:00:14.298Z,7.40
2019-03-10T11:01:14.294Z,7.80
2019-03-10T11:02:14.367Z,6.00
2019-03-10T11:03:14.307Z,5.60
2019-03-10T11:04:14.314Z,5.90
2019-03-10T11:05:14.397Z,6.80
2019-03-10T11:06:14.349Z,6.00
2019-03-10T11:07:14.335Z,6.30
2019-03-10T11:08:14.356Z,5.90
2019-03-10T11:09:14.372Z,7.30
2019-03-10T11:10:14.390Z,6.70
2019-03-10T11:11:14.447Z,6.70
2019-03-10T11:12:14.382Z,6.40
2019-03-10T11:13:14.404Z,6.70
2019-03-10T11:14:14.398Z,6.70
2019-03-10T11:15:14.493Z,6.60
2019-03-10T11:16:14.414Z,6.50
2019-03-10T11:17:14.491Z,6.20
2019-03-10T11:18:15.387Z,6.20
2019-03-10T11:19:14.493Z,6.00
2019-03-10T11:20:14.522Z,6.20
2019-03-10T11:21:14.670Z,6.40
2019-03-10T11:22:14.459Z,6.50
2019-03-10T11:23:14.558Z,6.50
2019-03-10T11:24:14.456Z,6.60
2019-03-10T11:25:14.482Z,6.70
2019-03-10T11:26:14.485Z,6.80
2019-03-10T11:27:14.494Z,6.70
2019-03-10T11:28:14.556Z,6.50
2019-03-10T11:29:14.515Z,6.50
2019-03-10T11:30:14.525Z,7.90
2019-03-10T11:31:14.512Z,6.40
2019-03-10T11:32:14.532Z,5.80
2019-03-10T11:33:14.533Z,6.00
2019-03-10T11:34:14.549Z,4.90
2019-03-10T11:35:14.633Z,4.60
2019-03-10T11:36:14.572Z,4.70
2019-03-10T11:37:14.527Z,4.80
2019-03-10T11:38:14.605Z,4.80
2019-03-10T11:39:14.559Z,4.60
2019-03-10T11:40:14.567Z,5.00
2019-03-10T11:41:14.613Z,5.90
2019-03-10T11:42:14.620Z,6.40
2019-03-10T11:43:14.564Z,11.10
2019-03-10T11:44:14.626Z,12.60
2019-03-10T11:45:14.641Z,12.90
2019-03-10T11:46:14.611Z,6.10
2019-03-10T11:47:14.607Z,4.80
2019-03-10T11:48:14.693Z,10.50
2019-03-10T11:49:14.690Z,6.40
2019-03-10T11:50:15.231Z,6.50
2019-03-10T11:51:14.618Z,5.80
2019-03-10T11:52:14.710Z,6.10
2019-03-10T11:53:19.102Z,5.90
2019-03-10T11:54:14.694Z,6.10
2019-03-10T11:55:14.825Z,6.10
2019-03-10T11:56:14.663Z,6.30
2019-03-10T11:57:14.698Z,6.40
2019-03-10T11:58:14.687Z,6.00
2019-03-10T11:59:14.718Z,7.90
2019-03-10T12:00:14.678Z,8.50
2019-03-10T12:01:14.739Z,7.10
2019-03-10T12:02:16.379Z,6.00
2019-03-10T12:03:14.702Z,6.30
2019-03-10T12:04:14.719Z,6.70
2019-03-10T12:05:14.722Z,6.90
2019-03-10T12:06:14.791Z,6.40
2019-03-10T12:07:14.777Z,7.40
2019-03-10T12:08:14.736Z,7.40
2019-03-10T12:09:14.743Z,6.00
2019-03-10T12:10:14.757Z,6.40
2019-03-10T12:11:14.764Z,4.90
2019-03-10T12:12:14.807Z,4.70
2019-03-10T12:13:14.759Z,4.60
2019-03-10T12:14:14.774Z,4.50
2019-03-10T12:15:14.791Z,4.30
2019-03-10T12:16:14.792Z,4.00
2019-03-10T12:17:14.794Z,4.00
2019-03-10T12:18:14.896Z,5.90
2019-03-10T12:19:14.799Z,4.90
2019-03-10T12:20:14.819Z,5.40
2019-03-10T12:21:14.830Z,6.40
2019-03-10T12:22:14.860Z,7.40
2019-03-10T12:23:14.840Z,5.70
2019-03-10T12:24:14.850Z,5.60
2019-03-10T12:25:14.855Z,5.00
2019-03-10T12:26:14.856Z,4.30
2019-03-10T12:27:14.868Z,4.00
2019-03-10T12:28:14.879Z,5.10
2019-03-10T12:29:14.886Z,5.50
2019-03-10T12:30:14.949Z,3.80
2019-03-10T12:31:14.894Z,4.40
2019-03-10T12:32:14.894Z,4.00
2019-03-10T12:33:14.909Z,4.70
2019-03-10T12:34:14.924Z,5.10
2019-03-10T12:35:14.917Z,4.40
2019-03-10T12:36:15.010Z,4.10
2019-03-10T12:37:14.927Z,5.20
2019-03-10T12:38:14.946Z,6.00
2019-03-10T12:39:17.022Z,5.80
2019-03-10T12:40:14.957Z,6.20
2019-03-10T12:41:14.970Z,4.50
2019-03-10T12:42:14.967Z,4.10
2019-03-10T12:43:14.991Z,5.40
2019-03-10T12:44:14.979Z,9.50
2019-03-10T12:45:15.010Z,9.30
2019-03-10T12:46:14.991Z,10.10
2019-03-10T12:47:15.020Z,7.00
2019-03-10T12:48:14.997Z,5.00
2019-03-10T12:49:15.007Z,5.80
2019-03-10T12:50:15.066Z,6.40
2019-03-10T12:51:15.033Z,6.20
2019-03-10T12:52:15.031Z,4.90
2019-03-10T12:53:15.064Z,5.20
2019-03-10T12:54:15.041Z,4.30
2019-03-10T12:55:15.060Z,4.40
2019-03-10T12:56:15.120Z,4.30
2019-03-10T12:57:15.082Z,4.80
2019-03-10T12:58:15.067Z,7.40
2019-03-10T12:59:15.221Z,9.00
2019-03-10T13:00:15.088Z,8.40
2019-03-10T13:01:15.112Z,5.00
2019-03-10T13:02:15.096Z,5.60
2019-03-10T13:03:15.122Z,5.00
2019-03-10T13:04:15.113Z,3.50
2019-03-10T13:05:15.166Z,3.90
2019-03-10T13:06:15.126Z,3.70
2019-03-10T13:07:15.146Z,3.40
2019-03-10T13:08:15.134Z,3.60
2019-03-10T13:09:15.149Z,3.70
2019-03-10T13:10:18.450Z,3.50
2019-03-10T13:11:15.156Z,6.50
2019-03-10T13:12:15.171Z,5.50
2019-03-10T13:13:15.199Z,2.90
2019-03-10T13:14:15.181Z,3.50
2019-03-10T13:15:15.221Z,3.70
2019-03-10T13:16:15.195Z,7.90
2019-03-10T13:17:15.213Z,7.30
2019-03-10T13:18:15.234Z,5.70